createdAt,value
2019-06-26T00:01:53.515Z,9.00
2019-06-26T00:04:40.735Z,9.03
2019-06-26T00:07:27.751Z,9.20
2019-06-26T00:10:14.662Z,8.80
2019-06-26T00:13:02.042Z,8.98
2019-06-26T00:15:49.375Z,8.38
2019-06-26T00:18:36.715Z,8.68
2019-06-26T00:21:23.848Z,10.25
2019-06-26T00:24:10.886Z,9.90
2019-06-26T00:26:58.009Z,9.05
2019-06-26T00:29:45.142Z,9.43
2019-06-26T00:32:32.049Z,8.95
2019-06-26T00:35:19.051Z,9.43
2019-06-26T00:38:06.138Z,9.28
2019-06-26T00:40:53.132Z,9.48
2019-06-26T00:43:42.625Z,9.43
2019-06-26T00:46:29.524Z,9.70
2019-06-26T00:49:16.748Z,9.13
2019-06-26T00:52:03.651Z,8.90
2019-06-26T00:54:50.701Z,8.78
2019-06-26T00:57:38.010Z,8.95
2019-06-26T01:00:30.974Z,8.20
2019-06-26T01:03:18.649Z,8.63
2019-06-26T01:06:07.310Z,8.75
2019-06-26T01:08:54.130Z,8.63
2019-06-26T01:11:41.098Z,7.80
2019-06-26T01:14:28.551Z,8.00
2019-06-26T01:17:15.810Z,7.65
2019-06-26T01:20:04.167Z,7.78
2019-06-26T01:22:51.236Z,8.25
2019-06-26T01:25:38.610Z,8.35
2019-06-26T01:28:25.655Z,7.62
2019-06-26T01:31:12.729Z,7.37
2019-06-26T01:33:59.803Z,7.83
2019-06-26T01:36:46.857Z,7.67
2019-06-26T01:39:34.119Z,6.92
2019-06-26T01:42:21.298Z,7.60
2019-06-26T01:45:08.946Z,7.40
2019-06-26T01:47:56.035Z,7.70
2019-06-26T01:50:43.131Z,7.85
2019-06-26T01:53:30.148Z,8.15
2019-06-26T01:56:17.186Z,8.48
2019-06-26T01:59:04.281Z,8.20
2019-06-26T02:01:51.635Z,7.80
2019-06-26T02:04:38.651Z,9.00
2019-06-26T02:07:25.966Z,8.23
2019-06-26T02:10:13.839Z,8.50
2019-06-26T02:13:00.821Z,8.05
2019-06-26T02:15:47.883Z,7.42
2019-06-26T02:18:38.692Z,7.60
2019-06-26T02:21:25.835Z,8.33
2019-06-26T02:24:12.855Z,8.35
2019-06-26T02:26:59.840Z,7.67
2019-06-26T02:29:46.601Z,7.55
2019-06-26T02:32:33.631Z,7.75
2019-06-26T02:35:20.915Z,7.25
2019-06-26T02:38:08.180Z,7.28
2019-06-26T02:40:55.578Z,8.30
2019-06-26T02:43:42.382Z,7.95
2019-06-26T02:46:29.445Z,7.65
2019-06-26T02:49:16.758Z,7.55
2019-06-26T02:52:03.552Z,7.37
2019-06-26T02:54:51.103Z,7.05
2019-06-26T02:57:37.906Z,7.20
2019-06-26T03:00:24.681Z,7.33
2019-06-26T03:03:11.491Z,7.20
2019-06-26T03:05:58.623Z,8.10
2019-06-26T03:08:45.586Z,7.53
2019-06-26T03:11:32.851Z,7.35
2019-06-26T03:14:19.921Z,7.55
2019-06-26T03:17:06.756Z,6.87
2019-06-26T03:19:53.751Z,8.05
2019-06-26T03:22:40.494Z,7.62
2019-06-26T03:25:27.617Z,7.55
2019-06-26T03:28:14.596Z,7.97
2019-06-26T03:31:01.752Z,8.10
2019-06-26T03:33:49.065Z,7.78
2019-06-26T03:36:36.038Z,7.65
2019-06-26T03:39:22.861Z,7.22
2019-06-26T03:42:09.663Z,7.80
2019-06-26T03:44:56.880Z,8.73
2019-06-26T03:47:43.687Z,8.38
2019-06-26T03:50:30.709Z,8.23
2019-06-26T03:56:03.770Z,8.95
2019-06-26T03:58:51.015Z,7.95
2019-06-26T04:01:38.151Z,8.20
2019-06-26T04:04:24.991Z,8.65
2019-06-26T04:07:11.988Z,8.23
2019-06-26T04:09:59.310Z,8.83
2019-06-26T04:12:46.606Z,8.45
2019-06-26T04:15:41.894Z,8.73
2019-06-26T04:18:22.849Z,7.97
2019-06-26T04:21:09.925Z,9.05
2019-06-26T04:23:56.631Z,9.23
2019-06-26T04:26:43.700Z,9.15
2019-06-26T04:29:30.532Z,8.48
2019-06-26T04:32:17.539Z,9.10
2019-06-26T04:35:05.472Z,8.43
2019-06-26T04:37:52.760Z,8.93
2019-06-26T04:40:39.983Z,8.85
2019-06-26T04:43:27.362Z,8.10
2019-06-26T04:46:14.662Z,8.30
2019-06-26T04:49:01.883Z,9.40
2019-06-26T04:51:48.928Z,9.78
2019-06-26T04:54:36.027Z,8.75
2019-06-26T04:57:23.234Z,9.00
2019-06-26T05:00:13.934Z,11.30
2019-06-26T05:03:01.254Z,10.48
2019-06-26T05:05:48.636Z,11.95
2019-06-26T05:08:36.076Z,15.60
2019-06-26T05:11:23.056Z,13.90
2019-06-26T05:14:10.426Z,17.70
2019-06-26T05:16:57.547Z,17.75
2019-06-26T05:19:44.643Z,15.55
2019-06-26T05:22:31.664Z,19.23
2019-06-26T05:25:19.046Z,17.52
2019-06-26T05:28:08.450Z,18.10
2019-06-26T05:30:55.197Z,17.73
2019-06-26T05:33:42.221Z,17.87
2019-06-26T05:36:29.342Z,18.48
2019-06-26T05:39:16.227Z,17.40
2019-06-26T05:42:06.559Z,16.73
2019-06-26T05:44:52.091Z,15.48
2019-06-26T05:47:39.355Z,15.55
2019-06-26T05:50:26.553Z,15.18
2019-06-26T05:53:13.694Z,16.27
2019-06-26T05:56:01.139Z,16.62
2019-06-26T05:58:55.813Z,15.80
2019-06-26T06:01:43.169Z,15.78
2019-06-26T06:04:30.549Z,15.75
2019-06-26T06:07:17.908Z,15.55
2019-06-26T06:10:07.465Z,16.30
2019-06-26T06:12:54.943Z,16.48
2019-06-26T06:15:52.456Z,16.65
2019-06-26T06:18:40.060Z,16.48
2019-06-26T06:21:27.075Z,15.30
2019-06-26T06:24:14.163Z,16.10
2019-06-26T06:27:01.023Z,14.93
2019-06-26T06:29:48.074Z,15.08
2019-06-26T06:32:36.149Z,15.35
2019-06-26T06:35:23.267Z,14.83
2019-06-26T06:38:10.592Z,14.85
2019-06-26T06:40:57.616Z,15.00
2019-06-26T06:43:44.967Z,14.58
2019-06-26T06:46:32.167Z,14.23
2019-06-26T06:49:19.394Z,14.13
2019-06-26T06:52:06.563Z,15.45
2019-06-26T06:54:53.294Z,15.32
2019-06-26T06:57:40.453Z,14.05
2019-06-26T07:00:29.494Z,14.07
2019-06-26T07:03:16.554Z,14.20
2019-06-26T07:06:03.583Z,15.15
2019-06-26T07:08:50.350Z,13.58
2019-06-26T07:11:37.417Z,15.45
2019-06-26T07:14:24.518Z,14.10
2019-06-26T07:17:20.657Z,14.10
2019-06-26T07:20:00.135Z,13.80
2019-06-26T07:22:46.854Z,14.60
2019-06-26T07:25:34.004Z,14.60
2019-06-26T07:28:21.065Z,13.93
2019-06-26T07:31:08.471Z,13.88
2019-06-26T07:33:56.055Z,14.25
2019-06-26T07:36:43.062Z,14.18
2019-06-26T07:39:30.058Z,14.33
2019-06-26T07:42:16.790Z,12.90
2019-06-26T07:45:04.631Z,13.80
2019-06-26T07:47:51.414Z,12.95
2019-06-26T07:50:38.396Z,12.73
2019-06-26T07:53:25.803Z,13.00
2019-06-26T07:56:12.883Z,13.13
2019-06-26T07:58:59.920Z,12.60
2019-06-26T08:01:47.100Z,12.60
2019-06-26T08:04:34.086Z,12.50
2019-06-26T08:07:21.185Z,11.73
2019-06-26T08:10:08.938Z,11.80
2019-06-26T08:12:57.291Z,11.88
2019-06-26T08:15:44.749Z,12.13
2019-06-26T08:18:31.977Z,11.60
2019-06-26T08:21:18.802Z,12.10
2019-06-26T08:24:05.792Z,11.83
2019-06-26T08:26:52.847Z,11.43
2019-06-26T08:29:39.978Z,12.40
2019-06-26T08:32:26.990Z,11.40
2019-06-26T08:35:15.110Z,11.22
2019-06-26T08:38:11.189Z,10.93
2019-06-26T08:40:50.813Z,10.53
2019-06-26T08:43:37.533Z,10.70
2019-06-26T08:46:24.534Z,10.78
2019-06-26T08:49:24.843Z,9.85
2019-06-26T08:52:00.554Z,9.98
2019-06-26T08:54:47.579Z,10.28
2019-06-26T08:57:34.648Z,10.58
2019-06-26T09:00:22.228Z,10.38
2019-06-26T09:03:09.295Z,10.38
2019-06-26T09:05:56.370Z,10.43
2019-06-26T09:08:43.465Z,10.20
2019-06-26T09:11:30.722Z,9.68
2019-06-26T09:14:17.919Z,9.30
2019-06-26T09:17:05.103Z,9.30
2019-06-26T09:19:52.196Z,9.68
2019-06-26T09:22:39.175Z,9.40
2019-06-26T09:25:26.185Z,8.73
2019-06-26T09:28:13.343Z,9.28
2019-06-26T09:31:00.054Z,9.40
2019-06-26T09:33:47.184Z,9.40
2019-06-26T09:36:34.497Z,8.35
2019-06-26T09:39:21.511Z,9.48
2019-06-26T09:42:08.627Z,9.08
2019-06-26T09:44:55.784Z,8.15
2019-06-26T09:47:42.605Z,9.08
2019-06-26T09:50:29.652Z,9.18
2019-06-26T09:53:16.949Z,9.63
2019-06-26T09:56:03.718Z,8.98
2019-06-26T09:58:50.739Z,8.55
2019-06-26T10:01:37.534Z,8.25
2019-06-26T10:04:24.802Z,8.30
2019-06-26T10:07:11.788Z,8.93
2019-06-26T10:09:58.891Z,8.63
2019-06-26T10:12:49.350Z,8.98
2019-06-26T10:15:37.388Z,8.48
2019-06-26T10:18:24.518Z,9.05
2019-06-26T10:21:11.861Z,8.98
2019-06-26T10:23:59.273Z,9.13
2019-06-26T10:26:46.111Z,9.13
2019-06-26T10:29:33.298Z,8.88
2019-06-26T10:32:21.574Z,8.55
2019-06-26T10:35:09.205Z,8.50
2019-06-26T10:37:56.534Z,8.58
2019-06-26T10:40:43.577Z,8.70
2019-06-26T10:43:30.901Z,8.93
2019-06-26T10:46:18.148Z,8.88
2019-06-26T10:49:05.449Z,8.78
2019-06-26T10:51:52.456Z,9.13
2019-06-26T10:54:39.411Z,8.98
2019-06-26T10:57:26.470Z,8.55
2019-06-26T11:00:15.136Z,8.45
2019-06-26T11:03:02.476Z,8.93
2019-06-26T11:05:49.679Z,8.50
2019-06-26T11:08:36.703Z,8.75
2019-06-26T11:11:23.495Z,8.58
2019-06-26T11:14:10.196Z,8.98
2019-06-26T11:16:57.282Z,9.13
2019-06-26T11:19:44.733Z,7.72
2019-06-26T11:22:31.622Z,8.63
2019-06-26T11:25:20.737Z,8.05
2019-06-26T11:28:07.710Z,8.25
2019-06-26T11:30:54.523Z,9.08
2019-06-26T11:33:41.504Z,8.65
2019-06-26T11:36:28.731Z,9.58
2019-06-26T11:39:16.099Z,8.68
2019-06-26T11:42:03.215Z,8.98
2019-06-26T11:44:50.210Z,9.13
2019-06-26T11:47:37.840Z,8.75
2019-06-26T11:50:25.619Z,9.15
2019-06-26T11:53:12.444Z,8.53
2019-06-26T11:56:00.011Z,8.65
2019-06-26T11:58:47.406Z,8.95
2019-06-26T12:01:37.342Z,8.68
2019-06-26T12:04:24.547Z,8.28
2019-06-26T12:07:11.278Z,8.28
2019-06-26T12:09:58.570Z,8.45
2019-06-26T12:12:45.655Z,8.48
2019-06-26T12:15:32.439Z,8.85
2019-06-26T12:18:19.747Z,8.60
2019-06-26T12:21:07.251Z,9.03
2019-06-26T12:23:54.304Z,8.83
2019-06-26T12:26:41.462Z,8.30
2019-06-26T12:29:28.660Z,9.60
2019-06-26T12:32:15.748Z,8.20
2019-06-26T12:35:04.500Z,9.18
2019-06-26T12:37:51.571Z,9.30
2019-06-26T12:40:38.583Z,9.53
2019-06-26T12:43:25.871Z,9.55
2019-06-26T12:46:12.903Z,9.38
2019-06-26T12:49:00.771Z,9.15
2019-06-26T12:51:47.809Z,8.95
2019-06-26T12:54:34.919Z,8.83
2019-06-26T12:57:22.311Z,9.78
2019-06-26T13:00:14.196Z,9.40
2019-06-26T13:03:01.121Z,9.05
2019-06-26T13:05:48.223Z,8.78
2019-06-26T13:08:35.225Z,8.73
2019-06-26T13:11:22.035Z,8.73
2019-06-26T13:14:09.534Z,8.93
2019-06-26T13:16:56.577Z,9.70
2019-06-26T13:19:44.714Z,8.53
2019-06-26T13:22:31.495Z,8.80
2019-06-26T13:25:18.569Z,9.45
2019-06-26T13:28:05.410Z,8.85
2019-06-26T13:30:53.491Z,9.15
2019-06-26T13:33:41.034Z,8.48
2019-06-26T13:36:27.844Z,9.53
2019-06-26T13:39:15.045Z,9.33
2019-06-26T13:42:02.346Z,8.35
2019-06-26T13:44:49.826Z,8.93
2019-06-26T13:47:37.067Z,8.73
2019-06-26T13:50:24.666Z,8.68
2019-06-26T13:53:11.661Z,8.08
2019-06-26T13:55:58.802Z,8.55
2019-06-26T13:58:45.901Z,8.83
2019-06-26T14:01:33.139Z,8.05
2019-06-26T14:04:20.187Z,8.08
2019-06-26T14:07:08.666Z,8.88
2019-06-26T14:09:56.276Z,8.33
2019-06-26T14:12:43.093Z,7.80
2019-06-26T14:15:29.919Z,9.08
2019-06-26T14:18:17.007Z,8.30
2019-06-26T14:21:03.724Z,8.10
2019-06-26T14:23:50.837Z,7.75
2019-06-26T14:26:37.645Z,8.50
2019-06-26T14:29:24.431Z,8.03
2019-06-26T14:32:11.479Z,8.28
2019-06-26T14:34:58.618Z,8.15
2019-06-26T14:37:45.870Z,7.50
2019-06-26T14:40:33.198Z,7.95
2019-06-26T14:43:20.575Z,7.92
2019-06-26T14:46:07.536Z,7.85
2019-06-26T14:48:54.576Z,7.87
2019-06-26T14:51:47.180Z,6.95
2019-06-26T14:54:30.594Z,7.78
2019-06-26T14:57:17.607Z,7.60
2019-06-26T15:00:06.648Z,8.15
2019-06-26T15:02:53.714Z,8.13
2019-06-26T15:05:40.778Z,7.90
2019-06-26T15:08:27.482Z,7.67
2019-06-26T15:11:15.661Z,8.10
2019-06-26T15:14:03.575Z,7.28
2019-06-26T15:16:50.692Z,7.25
2019-06-26T15:19:37.663Z,8.18
2019-06-26T15:22:24.986Z,8.15
2019-06-26T15:25:12.487Z,7.70
2019-06-26T15:27:59.740Z,8.38
2019-06-26T15:30:46.868Z,8.53
2019-06-26T15:33:36.578Z,8.40
2019-06-26T15:36:22.429Z,8.58
2019-06-26T15:39:09.484Z,8.05
2019-06-26T15:41:56.888Z,9.25
2019-06-26T15:44:44.220Z,7.87
2019-06-26T15:47:30.933Z,8.80
2019-06-26T15:50:17.925Z,8.50
2019-06-26T15:53:05.364Z,8.78
2019-06-26T15:55:52.472Z,8.25
2019-06-26T15:58:39.595Z,8.40
2019-06-26T16:01:26.790Z,8.43
2019-06-26T16:04:13.796Z,7.92
2019-06-26T16:07:00.861Z,7.97
2019-06-26T16:09:48.091Z,8.55
2019-06-26T16:12:35.141Z,8.00
2019-06-26T16:15:21.936Z,8.00
2019-06-26T16:18:15.786Z,8.08
2019-06-26T16:21:02.705Z,7.05
2019-06-26T16:23:50.176Z,7.10
2019-06-26T16:26:36.953Z,8.10
2019-06-26T16:29:23.986Z,7.97
2019-06-26T16:32:11.236Z,8.43
2019-06-26T16:34:58.262Z,7.80
2019-06-26T16:37:45.042Z,7.28
2019-06-26T16:40:32.235Z,7.60
2019-06-26T16:43:18.998Z,8.45
2019-06-26T16:46:05.766Z,7.70
2019-06-26T16:48:52.906Z,7.70
2019-06-26T16:51:39.962Z,7.55
2019-06-26T16:54:26.984Z,7.53
2019-06-26T16:57:14.160Z,7.30
2019-06-26T17:00:09.689Z,8.08
2019-06-26T17:02:50.047Z,7.30
2019-06-26T17:05:37.284Z,8.10
2019-06-26T17:08:25.618Z,7.22
2019-06-26T17:11:12.714Z,8.53
2019-06-26T17:13:59.973Z,7.30
2019-06-26T17:16:47.071Z,8.18
2019-06-26T17:19:34.678Z,8.23
2019-06-26T17:22:21.690Z,7.92
2019-06-26T17:25:09.450Z,8.60
2019-06-26T17:27:56.558Z,8.55
2019-06-26T17:30:43.404Z,7.58
2019-06-26T17:33:30.428Z,7.85
2019-06-26T17:36:17.775Z,8.38
2019-06-26T17:39:06.763Z,8.63
2019-06-26T17:41:54.020Z,8.20
2019-06-26T17:44:47.459Z,8.70
2019-06-26T17:47:34.494Z,8.85
2019-06-26T17:50:21.654Z,8.90
2019-06-26T17:53:21.104Z,8.80
2019-06-26T17:55:57.734Z,8.70
2019-06-26T17:58:44.856Z,9.25
2019-06-26T18:01:31.991Z,8.35
2019-06-26T18:04:19.031Z,9.05
2019-06-26T18:07:06.099Z,9.08
2019-06-26T18:09:53.246Z,9.78
2019-06-26T18:12:40.162Z,9.33
2019-06-26T18:15:27.340Z,9.65
2019-06-26T18:18:14.198Z,9.58
2019-06-26T18:21:01.174Z,10.60
2019-06-26T18:23:48.435Z,11.05
2019-06-26T18:26:35.688Z,11.00
2019-06-26T18:29:23.127Z,11.53
2019-06-26T18:32:10.146Z,11.30
2019-06-26T18:34:57.258Z,11.63
2019-06-26T18:37:44.109Z,11.93
2019-06-26T18:40:31.276Z,12.07
2019-06-26T18:43:17.986Z,11.70
2019-06-26T18:46:05.148Z,11.85
2019-06-26T18:48:52.102Z,12.30
2019-06-26T18:51:39.181Z,12.95
2019-06-26T18:54:26.483Z,11.85
2019-06-26T18:57:13.723Z,11.18
2019-06-26T19:00:00.636Z,11.80
2019-06-26T19:02:47.583Z,11.80
2019-06-26T19:05:34.731Z,11.28
2019-06-26T19:08:21.943Z,11.57
2019-06-26T19:11:09.493Z,10.23
2019-06-26T19:13:56.846Z,10.80
2019-06-26T19:16:43.747Z,10.40
2019-06-26T19:19:30.632Z,10.30
2019-06-26T19:22:17.467Z,9.90
2019-06-26T19:25:08.855Z,9.75
2019-06-26T19:27:56.030Z,9.23
2019-06-26T19:30:43.167Z,9.60
2019-06-26T19:33:30.491Z,9.25
2019-06-26T19:36:17.752Z,9.00
2019-06-26T19:39:06.671Z,9.78
2019-06-26T19:41:54.110Z,9.30
2019-06-26T19:44:41.098Z,9.58
2019-06-26T19:47:28.264Z,9.68
2019-06-26T19:50:15.832Z,9.73
2019-06-26T19:53:02.922Z,10.35
2019-06-26T19:55:50.177Z,10.03
2019-06-26T19:58:37.227Z,10.38
2019-06-26T20:01:24.690Z,10.85
2019-06-26T20:04:11.697Z,10.53
2019-06-26T20:06:58.852Z,10.80
2019-06-26T20:09:46.302Z,10.88
2019-06-26T20:12:33.732Z,11.40
2019-06-26T20:15:21.001Z,10.80
2019-06-26T20:18:07.787Z,10.65
2019-06-26T20:20:54.904Z,10.78
2019-06-26T20:23:42.588Z,11.20
2019-06-26T20:26:29.617Z,10.58
2019-06-26T20:29:16.575Z,10.58
2019-06-26T20:32:03.682Z,11.22
2019-06-26T20:34:50.876Z,11.38
2019-06-26T20:37:38.167Z,10.98
2019-06-26T20:40:25.246Z,11.48
2019-06-26T20:43:12.456Z,11.50
2019-06-26T20:45:59.468Z,11.08
2019-06-26T20:48:46.490Z,12.05
2019-06-26T20:51:33.558Z,11.93
2019-06-26T20:54:20.606Z,12.30
2019-06-26T20:57:07.345Z,11.93
2019-06-26T20:59:54.358Z,11.83
2019-06-26T21:02:41.430Z,12.35
2019-06-26T21:05:29.090Z,11.40
2019-06-26T21:08:16.643Z,12.00
2019-06-26T21:11:03.712Z,11.95
2019-06-26T21:13:50.787Z,11.40
2019-06-26T21:16:38.007Z,11.60
2019-06-26T21:19:25.283Z,12.23
2019-06-26T21:22:12.040Z,11.60
2019-06-26T21:24:58.837Z,11.95
2019-06-26T21:27:46.048Z,11.63
2019-06-26T21:30:33.073Z,11.48
2019-06-26T21:33:19.902Z,11.03
2019-06-26T21:36:06.994Z,11.25
2019-06-26T21:38:54.403Z,12.15
2019-06-26T21:41:41.673Z,11.55
2019-06-26T21:44:28.531Z,12.37
2019-06-26T21:47:15.690Z,11.88
2019-06-26T21:50:02.905Z,12.47
2019-06-26T21:52:50.274Z,11.93
2019-06-26T21:55:37.425Z,11.95
2019-06-26T21:58:24.664Z,12.25
2019-06-26T22:01:12.062Z,11.93
2019-06-26T22:03:58.802Z,11.10
2019-06-26T22:06:46.062Z,12.05
2019-06-26T22:09:33.211Z,12.75
2019-06-26T22:12:20.284Z,12.15
2019-06-26T22:15:07.434Z,11.75
2019-06-26T22:17:54.482Z,11.38
2019-06-26T22:20:41.762Z,11.45
2019-06-26T22:23:29.254Z,11.55
2019-06-26T22:26:16.090Z,12.10
2019-06-26T22:29:03.191Z,11.43
2019-06-26T22:31:50.286Z,12.28
2019-06-26T22:34:37.648Z,11.45
2019-06-26T22:37:24.881Z,10.93
2019-06-26T22:40:11.917Z,11.33
2019-06-26T22:42:59.281Z,12.68
2019-06-26T22:45:46.074Z,12.88
2019-06-26T22:48:33.127Z,11.45
2019-06-26T22:51:20.687Z,11.45
2019-06-26T22:54:07.531Z,11.75
2019-06-26T22:56:54.342Z,11.65
2019-06-26T22:59:41.822Z,12.30
2019-06-26T23:02:28.799Z,13.40
2019-06-26T23:05:15.916Z,12.18
2019-06-26T23:08:02.931Z,12.05
2019-06-26T23:10:50.083Z,11.93
2019-06-26T23:13:37.131Z,12.80
2019-06-26T23:16:24.399Z,12.35
2019-06-26T23:19:14.931Z,12.05
2019-06-26T23:22:00.735Z,12.40
2019-06-26T23:24:47.899Z,11.57
2019-06-26T23:27:34.967Z,11.78
2019-06-26T23:30:22.489Z,11.68
2019-06-26T23:33:09.666Z,11.88
2019-06-26T23:35:56.739Z,11.75
2019-06-26T23:38:44.063Z,11.55
2019-06-26T23:41:30.888Z,10.63
2019-06-26T23:44:18.128Z,11.05
2019-06-26T23:47:05.531Z,11.68
2019-06-26T23:49:52.794Z,11.97
2019-06-26T23:52:39.868Z,11.12
2019-06-26T23:55:26.702Z,11.28
2019-06-26T23:58:15.231Z,11.50
